Linden, IA (50146)

11:05 AM CDT on September 25, 2016 (GMT -0500)
WCV Middle School | | Change Station

Elev 968 ft 41.59 °N, 94.19 °W | Updated 25 seconds ago

Scattered Clouds
Scattered Clouds
63.1 °F
Feels Like 63.1 °F
N
7.0
Wind Variable Wind from West
Gusts 10.0 mph

Today
High -- | Low -- °F
--% Chance of Precip.
Yesterday
High -- | Low -- °F
Precip. -- in
Pressure 30.08 in
Visibility 10.0 miles
Clouds Scattered Clouds 12000 ft
Dew Point 54 °F
Humidity 72%
Rainfall 0.13 in
Snow Depth Not available.
7:08 AM 7:08 PM
Waning Crescent, 27% visible
METAR KPRO 251555Z AUTO 30012G20KT 10SM SCT120 18/12 A3008 RMK AO2 T01800124
Pressure 30.08 in
Visibility 10.0 miles
Clouds Scattered Clouds 12000 ft
Dew Point 54 °F
Humidity 72%
Rainfall 0.13 in
Snow Depth Not available.
7:08 AM 7:08 PM
Waning Crescent, 27% visible
METAR KPRO 251555Z AUTO 30012G20KT 10SM SCT120 18/12 A3008 RMK AO2 T01800124

10-Day Weather Forecast

Almanac

Astronomy

Sep. 25, 2016 Rise Set
Actual Time
Civil Twilight
Nautical Twilight
Astronomical Twilight
Moon
Length of Visible Light
Length of Day
Tomorrow will be .
, % of the Moon is Illuminated

Today's Extremes

State Highs State Lows

Community

WunderPhotos

Upload Photos

1,941,649 photos uploaded!

WunderBlog® & News

Nearby

Air Quality

  Air Quality AQ Index Pollutant
Not available.

Snow Depth

Station Depth Elevation

Earthquake Activity

City Distance Mag. Time & Date
Minimum magnitude displayed is 2.5.

Coastal Water Temperatures

Place Temperature

Stations

Nearby Weather Stations

Station Location Temp. Windchill Dew Point Humidity Wind Precip. Elev Updated Type
                   

Watches & Warnings

There are currently no watches in effect.